sensor_id;sensor_type;location;lat;lon;timestamp;pressure;altitude;pressure_sealevel;temperature;humidity
80733;BME280;70130;44.534;18.678;2023-12-07T00:01:12;98910.84;;;1.70;97.34
80733;BME280;70130;44.534;18.678;2023-12-07T00:03:38;98914.56;;;1.59;97.83
80733;BME280;70130;44.534;18.678;2023-12-07T00:06:04;98895.00;;;1.55;97.53
80733;BME280;70130;44.534;18.678;2023-12-07T00:08:29;98915.06;;;1.71;97.46
80733;BME280;70130;44.534;18.678;2023-12-07T00:10:55;98915.88;;;1.67;97.46
80733;BME280;70130;44.534;18.678;2023-12-07T00:13:51;98917.44;;;1.68;97.61
80733;BME280;70130;44.534;18.678;2023-12-07T00:16:20;98907.16;;;1.71;96.88
80733;BME280;70130;44.534;18.678;2023-12-07T00:18:45;98890.75;;;1.54;96.43
80733;BME280;70130;44.534;18.678;2023-12-07T00:21:11;98918.25;;;1.58;97.45
80733;BME280;70130;44.534;18.678;2023-12-07T00:23:37;98912.97;;;1.58;96.96
80733;BME280;70130;44.534;18.678;2023-12-07T00:26:06;98920.38;;;1.61;97.18
80733;BME280;70130;44.534;18.678;2023-12-07T00:28:32;98923.53;;;1.68;97.11
80733;BME280;70130;44.534;18.678;2023-12-07T00:30:57;98926.16;;;1.73;96.83
80733;BME280;70130;44.534;18.678;2023-12-07T00:33:26;98913.75;;;1.69;96.60
80733;BME280;70130;44.534;18.678;2023-12-07T00:35:52;98919.03;;;1.69;96.44
80733;BME280;70130;44.534;18.678;2023-12-07T00:38:18;98911.13;;;1.49;97.11
80733;BME280;70130;44.534;18.678;2023-12-07T00:40:53;98915.09;;;1.51;97.96
80733;BME280;70130;44.534;18.678;2023-12-07T00:43:19;98927.00;;;1.54;98.47
80733;BME280;70130;44.534;18.678;2023-12-07T00:45:44;98919.84;;;1.59;98.13
80733;BME280;70130;44.534;18.678;2023-12-07T00:48:11;98934.41;;;1.57;97.73
80733;BME280;70130;44.534;18.678;2023-12-07T00:50:40;98927.53;;;1.56;98.34
80733;BME280;70130;44.534;18.678;2023-12-07T00:53:17;98933.31;;;1.68;97.90
80733;BME280;70130;44.534;18.678;2023-12-07T00:55:46;98938.59;;;1.73;97.34
80733;BME280;70130;44.534;18.678;2023-12-07T00:58:12;98933.06;;;1.74;97.02
80733;BME280;70130;44.534;18.678;2023-12-07T01:00:37;98933.31;;;1.68;96.81
80733;BME280;70130;44.534;18.678;2023-12-07T01:03:09;98936.25;;;1.66;97.16
80733;BME280;70130;44.534;18.678;2023-12-07T01:05:37;98936.75;;;1.63;97.01
80733;BME280;70130;44.534;18.678;2023-12-07T01:08:03;98937.56;;;1.64;97.21
80733;BME280;70130;44.534;18.678;2023-12-07T01:10:47;98944.44;;;1.65;97.46
80733;BME280;70130;44.534;18.678;2023-12-07T01:13:15;98939.41;;;1.68;96.78
80733;BME280;70130;44.534;18.678;2023-12-07T01:15:41;98937.84;;;1.72;96.22
80733;BME280;70130;44.534;18.678;2023-12-07T01:18:09;98926.97;;;1.64;96.63
80733;BME280;70130;44.534;18.678;2023-12-07T01:20:47;98943.38;;;1.76;96.43
80733;BME280;70130;44.534;18.678;2023-12-07T01:23:16;98932.53;;;1.78;96.66
80733;BME280;70130;44.534;18.678;2023-12-07T01:26:03;98935.94;;;1.88;96.63
80733;BME280;70130;44.534;18.678;2023-12-07T01:28:29;98943.59;;;1.90;96.55
80733;BME280;70130;44.534;18.678;2023-12-07T01:30:58;98934.63;;;1.86;96.41
80733;BME280;70130;44.534;18.678;2023-12-07T01:33:23;98937.53;;;1.89;96.39
80733;BME280;70130;44.534;18.678;2023-12-07T01:35:52;98939.91;;;1.86;96.85
80733;BME280;70130;44.534;18.678;2023-12-07T01:38:18;98947.59;;;1.87;96.82
80733;BME280;70130;44.534;18.678;2023-12-07T01:40:47;98929.34;;;1.81;96.13
80733;BME280;70130;44.534;18.678;2023-12-07T01:43:16;98933.06;;;1.74;96.32
80733;BME280;70130;44.534;18.678;2023-12-07T01:45:42;98949.72;;;1.85;96.34
80733;BME280;70130;44.534;18.678;2023-12-07T01:48:08;98937.28;;;1.70;97.11
80733;BME280;70130;44.534;18.678;2023-12-07T01:50:36;98952.63;;;1.79;97.08
80733;BME280;70130;44.534;18.678;2023-12-07T01:53:05;98941.78;;;1.70;97.58
80733;BME280;70130;44.534;18.678;2023-12-07T01:55:34;98945.78;;;1.72;97.45
80733;BME280;70130;44.534;18.678;2023-12-07T01:58:22;98950.25;;;1.77;97.89
80733;BME280;70130;44.534;18.678;2023-12-07T02:00:48;98944.69;;;1.68;97.69
80733;BME280;70130;44.534;18.678;2023-12-07T02:03:17;98941.25;;;1.73;97.89
80733;BME280;70130;44.534;18.678;2023-12-07T02:05:48;98944.44;;;1.65;98.34
80733;BME280;70130;44.534;18.678;2023-12-07T02:08:17;98947.63;;;1.67;98.74
80733;BME280;70130;44.534;18.678;2023-12-07T02:10:43;98961.66;;;1.72;99.61
80733;BME280;70130;44.534;18.678;2023-12-07T02:13:11;98948.41;;;1.67;99.54
80733;BME280;70130;44.534;18.678;2023-12-07T02:15:40;98959.50;;;1.69;99.24
80733;BME280;70130;44.534;18.678;2023-12-07T02:18:28;98951.84;;;1.68;99.24
80733;BME280;70130;44.534;18.678;2023-12-07T02:21:21;98943.94;;;1.58;99.97
80733;BME280;70130;44.534;18.678;2023-12-07T02:23:53;98955.28;;;1.63;99.65
80733;BME280;70130;44.534;18.678;2023-12-07T02:26:31;98960.56;;;1.68;99.02
80733;BME280;70130;44.534;18.678;2023-12-07T02:29:00;98958.47;;;1.65;99.67
80733;BME280;70130;44.534;18.678;2023-12-07T02:31:28;98959.25;;;1.71;99.63
80733;BME280;70130;44.534;18.678;2023-12-07T02:33:57;98966.41;;;1.70;99.96
80733;BME280;70130;44.534;18.678;2023-12-07T02:36:38;98966.41;;;1.65;100.00
80733;BME280;70130;44.534;18.678;2023-12-07T02:39:11;98962.16;;;1.59;100.00
80733;BME280;70130;44.534;18.678;2023-12-07T02:41:41;98973.28;;;1.66;100.00
80733;BME280;70130;44.534;18.678;2023-12-07T02:44:42;98980.16;;;1.67;100.00
80733;BME280;70130;44.534;18.678;2023-12-07T02:47:08;98973.78;;;1.68;100.00
80733;BME280;70130;44.534;18.678;2023-12-07T02:49:34;98973.78;;;1.63;100.00
80733;BME280;70130;44.534;18.678;2023-12-07T02:52:03;98985.16;;;1.64;100.00
80733;BME280;70130;44.534;18.678;2023-12-07T02:54:34;98965.34;;;1.46;100.00
80733;BME280;70130;44.534;18.678;2023-12-07T02:57:03;98988.34;;;1.51;100.00
80733;BME280;70130;44.534;18.678;2023-12-07T02:59:31;98989.66;;;1.53;100.00
80733;BME280;70130;44.534;18.678;2023-12-07T03:02:09;98985.16;;;1.54;100.00
80733;BME280;70130;44.534;18.678;2023-12-07T03:04:37;98990.47;;;1.59;100.00
80733;BME280;70130;44.534;18.678;2023-12-07T03:07:06;98997.34;;;1.60;100.00
80733;BME280;70130;44.534;18.678;2023-12-07T03:09:31;98982.00;;;1.52;100.00
80733;BME280;70130;44.534;18.678;2023-12-07T03:12:00;98994.19;;;1.53;100.00
80733;BME280;70130;44.534;18.678;2023-12-07T03:14:29;98985.72;;;1.51;100.00
80733;BME280;70130;44.534;18.678;2023-12-07T03:16:54;99002.88;;;1.53;100.00
80733;BME280;70130;44.534;18.678;2023-12-07T03:19:23;98997.88;;;1.57;100.00
80733;BME280;70130;44.534;18.678;2023-12-07T03:21:52;98990.19;;;1.55;100.00
80733;BME280;70130;44.534;18.678;2023-12-07T03:24:18;99001.03;;;1.59;100.00
80733;BME280;70130;44.534;18.678;2023-12-07T03:26:46;99002.63;;;1.60;100.00
80733;BME280;70130;44.534;18.678;2023-12-07T03:29:14;99003.97;;;1.57;100.00
80733;BME280;70130;44.534;18.678;2023-12-07T03:31:46;99018.25;;;1.61;100.00
80733;BME280;70130;44.534;18.678;2023-12-07T03:34:14;99009.25;;;1.52;100.00
80733;BME280;70130;44.534;18.678;2023-12-07T03:36:47;99032.78;;;1.59;100.00
80733;BME280;70130;44.534;18.678;2023-12-07T03:39:17;99036.75;;;1.56;100.00
80733;BME280;70130;44.534;18.678;2023-12-07T03:41:51;99029.31;;;1.43;100.00
80733;BME280;70130;44.534;18.678;2023-12-07T03:44:20;99033.06;;;1.47;100.00
80733;BME280;70130;44.534;18.678;2023-12-07T03:46:46;99036.19;;;1.44;100.00
80733;BME280;70130;44.534;18.678;2023-12-07T03:49:14;99034.63;;;1.43;100.00
80733;BME280;70130;44.534;18.678;2023-12-07T03:51:43;99033.03;;;1.37;100.00
80733;BME280;70130;44.534;18.678;2023-12-07T03:54:11;99029.84;;;1.30;100.00
80733;BME280;70130;44.534;18.678;2023-12-07T03:56:37;99034.59;;;1.13;100.00
80733;BME280;70130;44.534;18.678;2023-12-07T03:59:06;99045.47;;;1.37;100.00
80733;BME280;70130;44.534;18.678;2023-12-07T04:01:35;99037.50;;;1.21;100.00
80733;BME280;70130;44.534;18.678;2023-12-07T04:04:06;99053.38;;;1.26;100.00
80733;BME280;70130;44.534;18.678;2023-12-07T04:06:35;99047.03;;;1.33;100.00
80733;BME280;70130;44.534;18.678;2023-12-07T04:09:06;99045.44;;;1.26;100.00
80733;BME280;70130;44.534;18.678;2023-12-07T04:11:36;99057.34;;;1.34;100.00
80733;BME280;70130;44.534;18.678;2023-12-07T04:14:04;99056.81;;;1.32;100.00
80733;BME280;70130;44.534;18.678;2023-12-07T04:17:04;99057.31;;;1.24;100.00
80733;BME280;70130;44.534;18.678;2023-12-07T04:19:30;99058.38;;;1.18;100.00
80733;BME280;70130;44.534;18.678;2023-12-07T04:22:14;99066.81;;;1.20;100.00
80733;BME280;70130;44.534;18.678;2023-12-07T04:24:42;99068.97;;;1.18;100.00
80733;BME280;70130;44.534;18.678;2023-12-07T04:30:26;99071.63;;;1.23;100.00
80733;BME280;70130;44.534;18.678;2023-12-07T04:32:58;99076.38;;;1.26;100.00
80733;BME280;70130;44.534;18.678;2023-12-07T04:35:26;99070.53;;;1.24;100.00
80733;BME280;70130;44.534;18.678;2023-12-07T04:37:56;99070.53;;;1.24;100.00
80733;BME280;70130;44.534;18.678;2023-12-07T04:40:22;99080.56;;;1.17;100.00
80733;BME280;70130;44.534;18.678;2023-12-07T04:43:04;99081.06;;;1.14;100.00
80733;BME280;70130;44.534;18.678;2023-12-07T04:45:33;99086.38;;;1.14;100.00
80733;BME280;70130;44.534;18.678;2023-12-07T04:47:58;99098.28;;;1.16;100.00
80733;BME280;70130;44.534;18.678;2023-12-07T04:50:28;99098.28;;;1.16;100.00
80733;BME280;70130;44.534;18.678;2023-12-07T04:52:57;99105.97;;;1.23;100.00
80733;BME280;70130;44.534;18.678;2023-12-07T04:55:23;99108.06;;;1.16;100.00
80733;BME280;70130;44.534;18.678;2023-12-07T04:57:51;99109.88;;;1.10;100.00
80733;BME280;70130;44.534;18.678;2023-12-07T05:00:17;99113.06;;;1.12;100.00
80733;BME280;70130;44.534;18.678;2023-12-07T05:02:55;99125.97;;;1.04;100.00
80733;BME280;70130;44.534;18.678;2023-12-07T05:05:42;99121.25;;;1.11;100.00
80733;BME280;70130;44.534;18.678;2023-12-07T05:08:08;99124.41;;;1.08;100.00
80733;BME280;70130;44.534;18.678;2023-12-07T05:10:34;99116.50;;;1.08;100.00
80733;BME280;70130;44.534;18.678;2023-12-07T05:13:05;99123.66;;;1.17;100.00
80733;BME280;70130;44.534;18.678;2023-12-07T05:18:56;99138.47;;;1.13;100.00
80733;BME280;70130;44.534;18.678;2023-12-07T05:21:21;99135.78;;;1.08;100.00
80733;BME280;70130;44.534;18.678;2023-12-07T05:24:05;99143.75;;;1.13;100.00
80733;BME280;70130;44.534;18.678;2023-12-07T05:30:14;99115.16;;;1.05;100.00
80733;BME280;70130;44.534;18.678;2023-12-07T05:32:40;99141.91;;;1.24;100.00
80733;BME280;70130;44.534;18.678;2023-12-07T05:35:06;99130.25;;;1.15;100.00
80733;BME280;70130;44.534;18.678;2023-12-07T05:40:38;99144.06;;;1.27;100.00
80733;BME280;70130;44.534;18.678;2023-12-07T05:43:03;99145.09;;;1.26;100.00
80733;BME280;70130;44.534;18.678;2023-12-07T05:45:32;99141.13;;;1.18;100.00
80733;BME280;70130;44.534;18.678;2023-12-07T05:47:58;99134.47;;;1.11;100.00
80733;BME280;70130;44.534;18.678;2023-12-07T05:50:33;99143.22;;;1.16;100.00
80733;BME280;70130;44.534;18.678;2023-12-07T05:52:58;99142.66;;;1.14;100.00
80733;BME280;70130;44.534;18.678;2023-12-07T05:55:25;99147.19;;;1.19;100.00
80733;BME280;70130;44.534;18.678;2023-12-07T05:57:53;99142.44;;;1.21;100.00
80733;BME280;70130;44.534;18.678;2023-12-07T06:00:19;99148.00;;;1.29;100.00
80733;BME280;70130;44.534;18.678;2023-12-07T06:02:45;99144.31;;;1.30;100.00
80733;BME280;70130;44.534;18.678;2023-12-07T06:05:22;99149.06;;;1.34;100.00
80733;BME280;70130;44.534;18.678;2023-12-07T06:08:06;99134.53;;;1.31;100.00
80733;BME280;70130;44.534;18.678;2023-12-07T06:10:32;99140.09;;;1.35;100.00
80733;BME280;70130;44.534;18.678;2023-12-07T06:12:58;99147.75;;;1.26;100.00
80733;BME280;70130;44.534;18.678;2023-12-07T06:15:26;99143.00;;;1.28;100.00
80733;BME280;70130;44.534;18.678;2023-12-07T06:17:54;99144.06;;;1.27;100.00
80733;BME280;70130;44.534;18.678;2023-12-07T06:20:20;99149.34;;;1.27;100.00
80733;BME280;70130;44.534;18.678;2023-12-07T06:22:48;99144.31;;;1.30;100.00
80733;BME280;70130;44.534;18.678;2023-12-07T06:25:16;99148.31;;;1.38;100.00
80733;BME280;70130;44.534;18.678;2023-12-07T06:27:42;99147.78;;;1.41;100.00
80733;BME280;70130;44.534;18.678;2023-12-07T06:30:07;99141.91;;;1.24;100.00
80733;BME280;70130;44.534;18.678;2023-12-07T06:32:33;99144.84;;;1.27;100.00
80733;BME280;70130;44.534;18.678;2023-12-07T06:35:00;99152.53;;;1.39;100.00
80733;BME280;70130;44.534;18.678;2023-12-07T06:37:26;99160.22;;;1.46;100.00
80733;BME280;70130;44.534;18.678;2023-12-07T06:39:52;99156.53;;;1.42;100.00
80733;BME280;70130;44.534;18.678;2023-12-07T06:42:18;99170.03;;;1.50;100.00
80733;BME280;70130;44.534;18.678;2023-12-07T06:44:46;99166.09;;;1.58;100.00
80733;BME280;70130;44.534;18.678;2023-12-07T06:47:12;99155.75;;;1.51;100.00
80733;BME280;70130;44.534;18.678;2023-12-07T06:49:38;99171.66;;;1.61;100.00
80733;BME280;70130;44.534;18.678;2023-12-07T06:52:04;99167.97;;;1.62;100.00
80733;BME280;70130;44.534;18.678;2023-12-07T06:54:29;99158.13;;;1.48;100.00
80733;BME280;70130;44.534;18.678;2023-12-07T06:56:55;99174.81;;;1.63;100.00
80733;BME280;70130;44.534;18.678;2023-12-07T06:59:21;99171.69;;;1.71;100.00
80733;BME280;70130;44.534;18.678;2023-12-07T07:01:47;99170.63;;;1.67;100.00
80733;BME280;70130;44.534;18.678;2023-12-07T07:04:12;99179.06;;;1.64;100.00
80733;BME280;70130;44.534;18.678;2023-12-07T07:06:40;99174.03;;;1.58;100.00
80733;BME280;70130;44.534;18.678;2023-12-07T07:09:06;99186.72;;;1.61;100.00
80733;BME280;70130;44.534;18.678;2023-12-07T07:11:32;99170.59;;;1.57;100.00
80733;BME280;70130;44.534;18.678;2023-12-07T07:13:57;99191.78;;;1.62;100.00
80733;BME280;70130;44.534;18.678;2023-12-07T07:16:24;99198.09;;;1.61;100.00
80733;BME280;70130;44.534;18.678;2023-12-07T07:18:50;99189.09;;;1.57;100.00
80733;BME280;70130;44.534;18.678;2023-12-07T07:21:15;99194.16;;;1.69;100.00
80733;BME280;70130;44.534;18.678;2023-12-07T07:23:41;99187.25;;;1.63;100.00
80733;BME280;70130;44.534;18.678;2023-12-07T07:26:07;99180.38;;;1.57;100.00
80733;BME280;70130;44.534;18.678;2023-12-07T07:28:33;99198.66;;;1.79;100.00
80733;BME280;70130;44.534;18.678;2023-12-07T07:31:00;99204.53;;;1.86;100.00
80733;BME280;70130;44.534;18.678;2023-12-07T07:33:26;99205.84;;;1.93;100.00
80733;BME280;70130;44.534;18.678;2023-12-07T07:35:51;99201.91;;;2.01;100.00
80733;BME280;70130;44.534;18.678;2023-12-07T07:38:17;99216.44;;;2.03;100.00
80733;BME280;70130;44.534;18.678;2023-12-07T07:40:43;99210.66;;;2.06;100.00
80733;BME280;70130;44.534;18.678;2023-12-07T07:43:11;99212.22;;;1.97;100.00
80733;BME280;70130;44.534;18.678;2023-12-07T07:45:36;99206.13;;;1.87;100.00
80733;BME280;70130;44.534;18.678;2023-12-07T07:48:02;99201.88;;;1.91;100.00
80733;BME280;70130;44.534;18.678;2023-12-07T07:50:28;99222.53;;;1.94;100.00
80733;BME280;70130;44.534;18.678;2023-12-07T07:52:54;99209.31;;;1.99;100.00
80733;BME280;70130;44.534;18.678;2023-12-07T07:55:20;99214.84;;;2.02;100.00
80733;BME280;70130;44.534;18.678;2023-12-07T07:57:46;99214.09;;;2.02;100.00
80733;BME280;70130;44.534;18.678;2023-12-07T08:00:12;99223.09;;;2.06;100.00
80733;BME280;70130;44.534;18.678;2023-12-07T08:02:38;99226.00;;;2.09;100.00
80733;BME280;70130;44.534;18.678;2023-12-07T08:05:04;99223.31;;;1.94;100.00
80733;BME280;70130;44.534;18.678;2023-12-07T08:07:30;99236.31;;;1.96;100.00
80733;BME280;70130;44.534;18.678;2023-12-07T08:09:56;99245.81;;;1.87;100.00
80733;BME280;70130;44.534;18.678;2023-12-07T08:12:22;99237.88;;;1.87;100.00
80733;BME280;70130;44.534;18.678;2023-12-07T08:14:50;99256.94;;;1.99;100.00
80733;BME280;70130;44.534;18.678;2023-12-07T08:17:16;99254.56;;;1.97;100.00
80733;BME280;70130;44.534;18.678;2023-12-07T08:19:42;99255.31;;;1.93;100.00
80733;BME280;70130;44.534;18.678;2023-12-07T08:22:08;99273.34;;;1.96;100.00
80733;BME280;70130;44.534;18.678;2023-12-07T08:24:34;99259.06;;;1.92;100.00
80733;BME280;70130;44.534;18.678;2023-12-07T08:26:59;99275.72;;;1.87;100.00
80733;BME280;70130;44.534;18.678;2023-12-07T08:29:25;99261.13;;;1.85;100.00
80733;BME280;70130;44.534;18.678;2023-12-07T08:31:51;99258.22;;;1.81;100.00
80733;BME280;70130;44.534;18.678;2023-12-07T08:34:17;99261.69;;;1.92;100.00
80733;BME280;70130;44.534;18.678;2023-12-07T08:36:42;99249.25;;;1.82;100.00
80733;BME280;70130;44.534;18.678;2023-12-07T08:39:08;99255.31;;;1.88;100.00
80733;BME280;70130;44.534;18.678;2023-12-07T08:41:37;99251.34;;;1.80;100.00
80733;BME280;70130;44.534;18.678;2023-12-07T08:44:03;99253.19;;;1.85;100.00
80733;BME280;70130;44.534;18.678;2023-12-07T08:46:29;99257.47;;;2.01;100.00
80733;BME280;70130;44.534;18.678;2023-12-07T08:48:54;99236.06;;;1.97;100.00
80733;BME280;70130;44.534;18.678;2023-12-07T08:51:21;99257.50;;;2.11;100.00
80733;BME280;70130;44.534;18.678;2023-12-07T08:53:47;99247.72;;;2.06;100.00
80733;BME280;70130;44.534;18.678;2023-12-07T08:56:15;99254.34;;;2.24;100.00
80733;BME280;70130;44.534;18.678;2023-12-07T08:58:43;99258.06;;;2.33;100.00
80733;BME280;70130;44.534;18.678;2023-12-07T09:01:11;99255.41;;;2.38;100.00
80733;BME280;70130;44.534;18.678;2023-12-07T09:03:37;99257.03;;;2.39;100.00
80733;BME280;70130;44.534;18.678;2023-12-07T09:06:03;99254.91;;;2.56;100.00
80733;BME280;70130;44.534;18.678;2023-12-07T09:08:29;99246.94;;;2.61;100.00
80733;BME280;70130;44.534;18.678;2023-12-07T09:10:54;99259.44;;;2.61;100.00
80733;BME280;70130;44.534;18.678;2023-12-07T09:13:20;99255.19;;;2.50;100.00
80733;BME280;70130;44.534;18.678;2023-12-07T09:15:46;99245.09;;;2.42;100.00
80733;BME280;70130;44.534;18.678;2023-12-07T09:18:11;99254.38;;;2.54;100.00
80733;BME280;70130;44.534;18.678;2023-12-07T09:20:39;99219.13;;;2.39;100.00
80733;BME280;70130;44.534;18.678;2023-12-07T09:23:11;99252.28;;;2.56;100.00
80733;BME280;70130;44.534;18.678;2023-12-07T09:25:39;99252.78;;;2.69;100.00
80733;BME280;70130;44.534;18.678;2023-12-07T09:28:06;99237.69;;;2.69;100.00
80733;BME280;70130;44.534;18.678;2023-12-07T09:30:34;99243.25;;;2.78;100.00
80733;BME280;70130;44.534;18.678;2023-12-07T09:33:00;99243.50;;;2.81;100.00
80733;BME280;70130;44.534;18.678;2023-12-07T09:35:29;99235.84;;;2.70;100.00
80733;BME280;70130;44.534;18.678;2023-12-07T09:37:55;99228.69;;;2.60;100.00
80733;BME280;70130;44.534;18.678;2023-12-07T09:40:22;99233.44;;;2.63;100.00
80733;BME280;70130;44.534;18.678;2023-12-07T09:42:50;99216.75;;;2.47;100.00
80733;BME280;70130;44.534;18.678;2023-12-07T09:45:17;99236.38;;;2.46;100.00
80733;BME280;70130;44.534;18.678;2023-12-07T09:47:51;99242.72;;;2.40;100.00
80733;BME280;70130;44.534;18.678;2023-12-07T09:50:18;99226.56;;;2.37;100.00
80733;BME280;70130;44.534;18.678;2023-12-07T09:52:51;99226.28;;;2.43;100.00
80733;BME280;70130;44.534;18.678;2023-12-07T09:55:18;99229.19;;;2.52;100.00
80733;BME280;70130;44.534;18.678;2023-12-07T09:57:45;99220.75;;;2.50;100.00
80733;BME280;70130;44.534;18.678;2023-12-07T10:00:11;99236.09;;;2.63;100.00
80733;BME280;70130;44.534;18.678;2023-12-07T10:02:40;99234.25;;;2.64;100.00
80733;BME280;70130;44.534;18.678;2023-12-07T10:05:10;99226.28;;;2.74;100.00
80733;BME280;70130;44.534;18.678;2023-12-07T10:07:43;99201.38;;;2.65;100.00
80733;BME280;70130;44.534;18.678;2023-12-07T10:10:10;99223.63;;;2.79;100.00
80733;BME280;70130;44.534;18.678;2023-12-07T10:12:59;99232.34;;;2.94;98.66
80733;BME280;70130;44.534;18.678;2023-12-07T10:15:26;99219.31;;;3.18;99.48
80733;BME280;70130;44.534;18.678;2023-12-07T10:18:09;99221.34;;;3.41;100.00
80733;BME280;70130;44.534;18.678;2023-12-07T10:20:34;99218.94;;;3.55;99.51
80733;BME280;70130;44.534;18.678;2023-12-07T10:23:04;99227.41;;;3.52;98.86
80733;BME280;70130;44.534;18.678;2023-12-07T10:25:31;99221.88;;;3.48;98.13
80733;BME280;70130;44.534;18.678;2023-12-07T10:27:57;99211.06;;;3.30;98.19
80733;BME280;70130;44.534;18.678;2023-12-07T10:30:23;99222.72;;;3.29;97.97
80733;BME280;70130;44.534;18.678;2023-12-07T10:32:52;99209.75;;;3.17;97.59
80733;BME280;70130;44.534;18.678;2023-12-07T10:35:19;99220.34;;;3.27;98.07
80733;BME280;70130;44.534;18.678;2023-12-07T10:37:46;99217.94;;;3.26;97.62
80733;BME280;70130;44.534;18.678;2023-12-07T10:40:12;99224.38;;;3.15;98.96
80733;BME280;70130;44.534;18.678;2023-12-07T10:42:40;99215.88;;;3.08;99.89
80733;BME280;70130;44.534;18.678;2023-12-07T10:45:07;99216.41;;;3.20;100.00
80733;BME280;70130;44.534;18.678;2023-12-07T10:47:39;99209.75;;;3.17;100.00
80733;BME280;70130;44.534;18.678;2023-12-07T10:50:07;99212.94;;;3.19;100.00
80733;BME280;70130;44.534;18.678;2023-12-07T10:52:47;99210.81;;;3.16;100.00
80733;BME280;70130;44.534;18.678;2023-12-07T10:55:18;99210.81;;;3.16;100.00
80733;BME280;70130;44.534;18.678;2023-12-07T10:57:47;99212.94;;;3.19;99.34
80733;BME280;70130;44.534;18.678;2023-12-07T11:00:13;99212.66;;;3.21;99.33
80733;BME280;70130;44.534;18.678;2023-12-07T11:02:39;99218.78;;;3.16;99.19
80733;BME280;70130;44.534;18.678;2023-12-07T11:05:06;99221.19;;;3.13;97.30
80733;BME280;70130;44.534;18.678;2023-12-07T11:07:55;99218.56;;;3.02;97.40
80733;BME280;70130;44.534;18.678;2023-12-07T11:10:34;99214.09;;;2.83;96.90
80733;BME280;70130;44.534;18.678;2023-12-07T11:13:20;99226.03;;;2.85;96.64
80733;BME280;70130;44.534;18.678;2023-12-07T11:15:50;99219.13;;;2.89;97.27
80733;BME280;70130;44.534;18.678;2023-12-07T11:18:17;99212.22;;;2.83;96.67
80733;BME280;70130;44.534;18.678;2023-12-07T11:20:46;99213.81;;;2.94;97.13
80733;BME280;70130;44.534;18.678;2023-12-07T11:23:18;99202.41;;;2.84;96.42
80733;BME280;70130;44.534;18.678;2023-12-07T11:25:46;99216.19;;;2.96;97.88
80733;BME280;70130;44.534;18.678;2023-12-07T11:28:13;99196.88;;;2.85;97.14
80733;BME280;70130;44.534;18.678;2023-12-07T11:30:42;99214.03;;;3.03;96.36
80733;BME280;70130;44.534;18.678;2023-12-07T11:33:09;99205.84;;;2.94;97.62
80733;BME280;70130;44.534;18.678;2023-12-07T11:38:25;99209.81;;;2.97;97.22
80733;BME280;70130;44.534;18.678;2023-12-07T11:40:51;99220.94;;;2.99;97.79
80733;BME280;70130;44.534;18.678;2023-12-07T11:43:18;99219.63;;;2.96;98.18
80733;BME280;70130;44.534;18.678;2023-12-07T11:45:48;99219.13;;;2.89;99.42
80733;BME280;70130;44.534;18.678;2023-12-07T11:48:15;99221.75;;;2.89;100.00
80733;BME280;70130;44.534;18.678;2023-12-07T11:53:26;99230.53;;;2.80;100.00
80733;BME280;70130;44.534;18.678;2023-12-07T11:55:52;99231.03;;;2.72;100.00
80733;BME280;70130;44.534;18.678;2023-12-07T11:58:21;99201.94;;;2.46;100.00
80733;BME280;70130;44.534;18.678;2023-12-07T12:00:47;99239.78;;;2.52;100.00
80733;BME280;70130;44.534;18.678;2023-12-07T12:03:14;99246.69;;;2.43;100.00
80733;BME280;70130;44.534;18.678;2023-12-07T12:05:40;99230.25;;;2.26;100.00
80733;BME280;70130;44.534;18.678;2023-12-07T12:08:06;99257.25;;;2.28;100.00
80733;BME280;70130;44.534;18.678;2023-12-07T12:10:32;99257.53;;;2.31;100.00
80733;BME280;70130;44.534;18.678;2023-12-07T12:13:02;99238.72;;;2.28;100.00
80733;BME280;70130;44.534;18.678;2023-12-07T12:15:29;99232.63;;;2.27;100.00
80733;BME280;70130;44.534;18.678;2023-12-07T12:17:58;99226.28;;;2.28;100.00
80733;BME280;70130;44.534;18.678;2023-12-07T12:20:25;99228.69;;;2.35;100.00
80733;BME280;70130;44.534;18.678;2023-12-07T12:22:51;99228.41;;;2.36;100.00
80733;BME280;70130;44.534;18.678;2023-12-07T12:25:27;99229.47;;;2.35;100.00
80733;BME280;70130;44.534;18.678;2023-12-07T12:27:58;99218.09;;;2.40;98.93
80733;BME280;70130;44.534;18.678;2023-12-07T12:30:27;99218.59;;;2.47;98.69
80733;BME280;70130;44.534;18.678;2023-12-07T12:32:53;99214.91;;;2.48;97.06
80733;BME280;70130;44.534;18.678;2023-12-07T12:35:18;99224.69;;;2.63;97.91
80733;BME280;70130;44.534;18.678;2023-12-07T12:37:45;99221.25;;;2.67;96.55
80733;BME280;70130;44.534;18.678;2023-12-07T12:40:12;99222.03;;;2.73;97.18
80733;BME280;70130;44.534;18.678;2023-12-07T12:42:49;99214.38;;;2.76;96.54
80733;BME280;70130;44.534;18.678;2023-12-07T12:45:16;99218.06;;;2.85;95.17
80733;BME280;70130;44.534;18.678;2023-12-07T12:47:44;99212.47;;;2.82;93.64
80733;BME280;70130;44.534;18.678;2023-12-07T12:50:11;99219.91;;;2.90;95.21
80733;BME280;70130;44.534;18.678;2023-12-07T12:52:39;99206.66;;;2.85;94.97
80733;BME280;70130;44.534;18.678;2023-12-07T12:55:09;99216.47;;;2.94;94.19
80733;BME280;70130;44.534;18.678;2023-12-07T12:57:36;99220.41;;;3.02;94.23
80733;BME280;70130;44.534;18.678;2023-12-07T13:00:04;99214.59;;;3.00;93.46
80733;BME280;70130;44.534;18.678;2023-12-07T13:02:29;99202.16;;;2.95;93.55
80733;BME280;70130;44.534;18.678;2023-12-07T13:04:55;99218.50;;;3.18;93.18
80733;BME280;70130;44.534;18.678;2023-12-07T13:07:26;99229.94;;;3.13;92.74
80733;BME280;70130;44.534;18.678;2023-12-07T13:09:54;99201.03;;;3.07;92.41
80733;BME280;70130;44.534;18.678;2023-12-07T13:12:20;99220.69;;;3.06;92.13
80733;BME280;70130;44.534;18.678;2023-12-07T13:14:48;99210.09;;;2.95;92.44
80733;BME280;70130;44.534;18.678;2023-12-07T13:17:14;99219.34;;;2.98;92.08
80733;BME280;70130;44.534;18.678;2023-12-07T13:19:41;99220.91;;;3.14;92.69